sensor_id;sensor_type;location;lat;lon;timestamp;temperature;humidity
62464;SHT31;48512;48.552;9.380;2023-02-15T00:01:31;0.08;84.46
62464;SHT31;48512;48.552;9.380;2023-02-15T00:03:57;0.03;84.59
62464;SHT31;48512;48.552;9.380;2023-02-15T00:06:22;0.01;84.46
62464;SHT31;48512;48.552;9.380;2023-02-15T00:08:48;-0.09;84.68
62464;SHT31;48512;48.552;9.380;2023-02-15T00:11:15;-0.14;84.65
62464;SHT31;48512;48.552;9.380;2023-02-15T00:13:42;-0.13;84.58
62464;SHT31;48512;48.552;9.380;2023-02-15T00:16:12;-0.10;84.56
62464;SHT31;48512;48.552;9.380;2023-02-15T00:18:41;-0.24;84.83
62464;SHT31;48512;48.552;9.380;2023-02-15T00:21:09;-0.37;85.18
62464;SHT31;48512;48.552;9.380;2023-02-15T00:23:35;-0.21;84.70
62464;SHT31;48512;48.552;9.380;2023-02-15T00:26:07;-0.23;84.87
62464;SHT31;48512;48.552;9.380;2023-02-15T00:28:33;-0.16;84.97
62464;SHT31;48512;48.552;9.380;2023-02-15T00:31:06;-0.11;85.04
62464;SHT31;48512;48.552;9.380;2023-02-15T00:33:31;-0.18;85.07
62464;SHT31;48512;48.552;9.380;2023-02-15T00:35:58;-0.26;84.96
62464;SHT31;48512;48.552;9.380;2023-02-15T00:38:24;-0.23;84.86
62464;SHT31;48512;48.552;9.380;2023-02-15T00:40:54;-0.31;84.81
62464;SHT31;48512;48.552;9.380;2023-02-15T00:43:20;-0.38;84.84
62464;SHT31;48512;48.552;9.380;2023-02-15T00:45:46;-0.24;84.44
62464;SHT31;48512;48.552;9.380;2023-02-15T00:48:11;-0.33;84.26
62464;SHT31;48512;48.552;9.380;2023-02-15T00:50:36;-0.37;84.56
62464;SHT31;48512;48.552;9.380;2023-02-15T00:53:02;-0.48;85.08
62464;SHT31;48512;48.552;9.380;2023-02-15T00:55:27;-0.40;84.76
62464;SHT31;48512;48.552;9.380;2023-02-15T00:57:53;-0.44;84.94
62464;SHT31;48512;48.552;9.380;2023-02-15T01:00:18;-0.41;85.13
62464;SHT31;48512;48.552;9.380;2023-02-15T01:02:43;-0.40;85.05
62464;SHT31;48512;48.552;9.380;2023-02-15T01:05:09;-0.53;85.29
62464;SHT31;48512;48.552;9.380;2023-02-15T01:07:34;-0.45;85.08
62464;SHT31;48512;48.552;9.380;2023-02-15T01:09:59;-0.57;85.06
62464;SHT31;48512;48.552;9.380;2023-02-15T01:12:25;-0.55;85.38
62464;SHT31;48512;48.552;9.380;2023-02-15T01:14:50;-0.65;85.55
62464;SHT31;48512;48.552;9.380;2023-02-15T01:17:15;-0.62;85.20
62464;SHT31;48512;48.552;9.380;2023-02-15T01:19:41;-0.72;85.49
62464;SHT31;48512;48.552;9.380;2023-02-15T01:22:06;-0.64;85.08
62464;SHT31;48512;48.552;9.380;2023-02-15T01:24:32;-0.82;85.32
62464;SHT31;48512;48.552;9.380;2023-02-15T01:26:57;-0.91;85.78
62464;SHT31;48512;48.552;9.380;2023-02-15T01:29:22;-0.85;85.61
62464;SHT31;48512;48.552;9.380;2023-02-15T01:31:48;-0.79;85.69
62464;SHT31;48512;48.552;9.380;2023-02-15T01:34:13;-0.79;85.77
62464;SHT31;48512;48.552;9.380;2023-02-15T01:36:38;-0.89;85.90
62464;SHT31;48512;48.552;9.380;2023-02-15T01:39:04;-0.88;86.19
62464;SHT31;48512;48.552;9.380;2023-02-15T01:41:30;-0.91;86.46
62464;SHT31;48512;48.552;9.380;2023-02-15T01:44:00;-0.92;86.35
62464;SHT31;48512;48.552;9.380;2023-02-15T01:46:38;-0.92;86.22
62464;SHT31;48512;48.552;9.380;2023-02-15T01:49:11;-0.79;85.80
62464;SHT31;48512;48.552;9.380;2023-02-15T01:51:41;-0.78;85.70
62464;SHT31;48512;48.552;9.380;2023-02-15T01:54:21;-0.66;85.70
62464;SHT31;48512;48.552;9.380;2023-02-15T01:56:49;-0.74;85.75
62464;SHT31;48512;48.552;9.380;2023-02-15T01:59:19;-0.88;85.61
62464;SHT31;48512;48.552;9.380;2023-02-15T02:01:45;-0.76;85.61
62464;SHT31;48512;48.552;9.380;2023-02-15T02:04:35;-0.82;85.65
62464;SHT31;48512;48.552;9.380;2023-02-15T02:07:04;-0.97;85.66
62464;SHT31;48512;48.552;9.380;2023-02-15T02:09:30;-1.00;85.83
62464;SHT31;48512;48.552;9.380;2023-02-15T02:11:55;-1.04;85.96
62464;SHT31;48512;48.552;9.380;2023-02-15T02:14:22;-0.99;85.71
62464;SHT31;48512;48.552;9.380;2023-02-15T02:39:13;-1.21;85.56
62464;SHT31;48512;48.552;9.380;2023-02-15T02:42:04;-1.27;85.38
62464;SHT31;48512;48.552;9.380;2023-02-15T02:47:47;-1.29;85.80
62464;SHT31;48512;48.552;9.380;2023-02-15T02:50:20;-1.29;85.80
62464;SHT31;48512;48.552;9.380;2023-02-15T02:52:49;-1.17;85.54
62464;SHT31;48512;48.552;9.380;2023-02-15T02:57:50;-1.31;85.48
62464;SHT31;48512;48.552;9.380;2023-02-15T03:00:17;-1.40;85.57
62464;SHT31;48512;48.552;9.380;2023-02-15T03:02:45;-1.60;85.96
62464;SHT31;48512;48.552;9.380;2023-02-15T03:05:17;-1.65;86.26
62464;SHT31;48512;48.552;9.380;2023-02-15T03:07:47;-1.71;86.52
62464;SHT31;48512;48.552;9.380;2023-02-15T03:10:13;-1.75;87.09
62464;SHT31;48512;48.552;9.380;2023-02-15T03:12:40;-1.79;87.25
62464;SHT31;48512;48.552;9.380;2023-02-15T03:15:07;-1.69;87.32
62464;SHT31;48512;48.552;9.380;2023-02-15T03:17:36;-1.60;87.40
62464;SHT31;48512;48.552;9.380;2023-02-15T03:20:30;-1.44;87.97
62464;SHT31;48512;48.552;9.380;2023-02-15T03:23:03;-1.46;87.95
62464;SHT31;48512;48.552;9.380;2023-02-15T03:25:34;-1.40;87.36
62464;SHT31;48512;48.552;9.380;2023-02-15T03:28:06;-1.48;88.47
62464;SHT31;48512;48.552;9.380;2023-02-15T03:30:34;-1.50;88.42
62464;SHT31;48512;48.552;9.380;2023-02-15T03:33:02;-1.55;88.07
62464;SHT31;48512;48.552;9.380;2023-02-15T03:35:40;-1.57;87.31
62464;SHT31;48512;48.552;9.380;2023-02-15T03:38:08;-1.65;87.50
62464;SHT31;48512;48.552;9.380;2023-02-15T03:40:38;-1.58;87.60
62464;SHT31;48512;48.552;9.380;2023-02-15T03:43:48;-1.47;87.37
62464;SHT31;48512;48.552;9.380;2023-02-15T03:49:27;-1.31;86.84
62464;SHT31;48512;48.552;9.380;2023-02-15T03:51:56;-1.47;87.16
62464;SHT31;48512;48.552;9.380;2023-02-15T03:54:27;-1.48;87.28
62464;SHT31;48512;48.552;9.380;2023-02-15T03:59:58;-1.67;87.49
62464;SHT31;48512;48.552;9.380;2023-02-15T04:02:59;-1.58;87.21
62464;SHT31;48512;48.552;9.380;2023-02-15T04:05:27;-1.51;86.98
62464;SHT31;48512;48.552;9.380;2023-02-15T04:07:52;-1.50;87.11
62464;SHT31;48512;48.552;9.380;2023-02-15T04:10:18;-1.36;86.63
62464;SHT31;48512;48.552;9.380;2023-02-15T04:13:02;-1.33;86.40
62464;SHT31;48512;48.552;9.380;2023-02-15T04:15:27;-1.47;86.52
62464;SHT31;48512;48.552;9.380;2023-02-15T04:18:11;-1.51;87.01
62464;SHT31;48512;48.552;9.380;2023-02-15T04:20:36;-1.69;86.74
62464;SHT31;48512;48.552;9.380;2023-02-15T04:23:20;-1.71;86.44
62464;SHT31;48512;48.552;9.380;2023-02-15T04:26:05;-1.65;85.77
62464;SHT31;48512;48.552;9.380;2023-02-15T04:28:30;-1.61;86.05
62464;SHT31;48512;48.552;9.380;2023-02-15T04:30:56;-1.75;86.07
62464;SHT31;48512;48.552;9.380;2023-02-15T04:33:21;-1.83;86.38
62464;SHT31;48512;48.552;9.380;2023-02-15T04:35:46;-1.83;86.49
62464;SHT31;48512;48.552;9.380;2023-02-15T04:38:12;-1.89;86.71
62464;SHT31;48512;48.552;9.380;2023-02-15T04:40:37;-1.83;86.62
62464;SHT31;48512;48.552;9.380;2023-02-15T04:43:03;-1.82;86.83
62464;SHT31;48512;48.552;9.380;2023-02-15T04:45:28;-1.77;86.68
62464;SHT31;48512;48.552;9.380;2023-02-15T04:47:53;-1.71;86.91
62464;SHT31;48512;48.552;9.380;2023-02-15T04:50:19;-1.78;86.68
62464;SHT31;48512;48.552;9.380;2023-02-15T04:52:44;-1.71;86.34
62464;SHT31;48512;48.552;9.380;2023-02-15T04:55:10;-1.78;86.28
62464;SHT31;48512;48.552;9.380;2023-02-15T04:57:35;-1.78;86.18
62464;SHT31;48512;48.552;9.380;2023-02-15T05:00:01;-1.99;86.41
62464;SHT31;48512;48.552;9.380;2023-02-15T05:02:26;-2.10;86.74
62464;SHT31;48512;48.552;9.380;2023-02-15T05:04:51;-2.13;87.21
62464;SHT31;48512;48.552;9.380;2023-02-15T05:07:17;-2.17;87.13
62464;SHT31;48512;48.552;9.380;2023-02-15T05:09:43;-2.16;87.32
62464;SHT31;48512;48.552;9.380;2023-02-15T05:12:08;-2.11;87.16
62464;SHT31;48512;48.552;9.380;2023-02-15T05:14:33;-2.05;87.36
62464;SHT31;48512;48.552;9.380;2023-02-15T05:16:59;-1.99;87.30
62464;SHT31;48512;48.552;9.380;2023-02-15T05:19:27;-1.90;87.46
62464;SHT31;48512;48.552;9.380;2023-02-15T05:21:52;-1.92;87.33
62464;SHT31;48512;48.552;9.380;2023-02-15T05:24:17;-2.02;87.43
62464;SHT31;48512;48.552;9.380;2023-02-15T05:27:01;-2.17;87.60
62464;SHT31;48512;48.552;9.380;2023-02-15T05:29:45;-2.26;88.39
62464;SHT31;48512;48.552;9.380;2023-02-15T05:32:13;-2.27;88.35
62464;SHT31;48512;48.552;9.380;2023-02-15T05:34:39;-2.07;87.91
62464;SHT31;48512;48.552;9.380;2023-02-15T05:37:04;-2.05;87.98
62464;SHT31;48512;48.552;9.380;2023-02-15T05:39:29;-1.96;88.03
62464;SHT31;48512;48.552;9.380;2023-02-15T05:41:58;-1.95;87.82
62464;SHT31;48512;48.552;9.380;2023-02-15T05:44:24;-1.88;87.43
62464;SHT31;48512;48.552;9.380;2023-02-15T05:46:49;-1.81;87.16
62464;SHT31;48512;48.552;9.380;2023-02-15T05:49:14;-1.77;86.80
62464;SHT31;48512;48.552;9.380;2023-02-15T05:51:40;-1.67;86.48
62464;SHT31;48512;48.552;9.380;2023-02-15T05:54:05;-1.64;86.18
62464;SHT31;48512;48.552;9.380;2023-02-15T05:56:30;-1.78;86.25
62464;SHT31;48512;48.552;9.380;2023-02-15T05:58:56;-1.93;86.31
62464;SHT31;48512;48.552;9.380;2023-02-15T06:01:21;-2.22;86.98
62464;SHT31;48512;48.552;9.380;2023-02-15T06:03:48;0.45;99.81
62464;SHT31;48512;48.552;9.380;2023-02-15T06:06:14;1.18;96.12
62464;SHT31;48512;48.552;9.380;2023-02-15T06:08:40;0.26;90.61
62464;SHT31;48512;48.552;9.380;2023-02-15T06:11:06;-0.27;90.44
62464;SHT31;48512;48.552;9.380;2023-02-15T06:13:32;-0.66;89.86
62464;SHT31;48512;48.552;9.380;2023-02-15T06:15:58;-1.07;86.52
62464;SHT31;48512;48.552;9.380;2023-02-15T06:18:23;-1.26;84.73
62464;SHT31;48512;48.552;9.380;2023-02-15T06:20:49;-1.43;85.20
62464;SHT31;48512;48.552;9.380;2023-02-15T06:23:14;-1.46;85.70
62464;SHT31;48512;48.552;9.380;2023-02-15T06:25:40;-1.46;85.86
62464;SHT31;48512;48.552;9.380;2023-02-15T06:28:06;-1.54;85.81
62464;SHT31;48512;48.552;9.380;2023-02-15T06:30:31;-1.58;85.47
62464;SHT31;48512;48.552;9.380;2023-02-15T06:32:57;-1.57;84.94
62464;SHT31;48512;48.552;9.380;2023-02-15T06:35:23;-1.61;84.87
62464;SHT31;48512;48.552;9.380;2023-02-15T06:37:48;-1.74;85.05
62464;SHT31;48512;48.552;9.380;2023-02-15T06:40:14;-1.83;85.41
62464;SHT31;48512;48.552;9.380;2023-02-15T06:42:41;-1.78;85.35
62464;SHT31;48512;48.552;9.380;2023-02-15T06:45:07;-1.75;85.16
62464;SHT31;48512;48.552;9.380;2023-02-15T06:47:32;-1.81;85.56
62464;SHT31;48512;48.552;9.380;2023-02-15T06:49:58;-1.90;85.62
62464;SHT31;48512;48.552;9.380;2023-02-15T06:52:24;-1.99;86.06
62464;SHT31;48512;48.552;9.380;2023-02-15T06:54:49;-1.95;85.91
62464;SHT31;48512;48.552;9.380;2023-02-15T06:57:14;-1.99;86.36
62464;SHT31;48512;48.552;9.380;2023-02-15T06:59:40;-1.98;86.68
62464;SHT31;48512;48.552;9.380;2023-02-15T07:02:05;-1.95;86.77
62464;SHT31;48512;48.552;9.380;2023-02-15T07:04:31;-1.85;87.10
62464;SHT31;48512;48.552;9.380;2023-02-15T07:06:56;-1.93;87.52
62464;SHT31;48512;48.552;9.380;2023-02-15T07:09:22;-1.98;87.56
62464;SHT31;48512;48.552;9.380;2023-02-15T07:11:47;-2.07;88.16
62464;SHT31;48512;48.552;9.380;2023-02-15T07:14:31;-2.06;88.17
62464;SHT31;48512;48.552;9.380;2023-02-15T07:16:57;-2.09;88.52
62464;SHT31;48512;48.552;9.380;2023-02-15T07:19:22;-1.96;88.29
62464;SHT31;48512;48.552;9.380;2023-02-15T07:21:48;-1.95;88.42
62464;SHT31;48512;48.552;9.380;2023-02-15T07:24:13;-1.85;88.24
62464;SHT31;48512;48.552;9.380;2023-02-15T07:26:39;-1.79;88.23
62464;SHT31;48512;48.552;9.380;2023-02-15T07:29:04;-1.64;88.16
62464;SHT31;48512;48.552;9.380;2023-02-15T07:31:30;-1.60;88.12
62464;SHT31;48512;48.552;9.380;2023-02-15T07:33:55;-1.57;88.25
62464;SHT31;48512;48.552;9.380;2023-02-15T07:36:21;-1.57;88.15
62464;SHT31;48512;48.552;9.380;2023-02-15T07:38:46;-1.61;88.34
62464;SHT31;48512;48.552;9.380;2023-02-15T07:41:13;-1.54;88.28
62464;SHT31;48512;48.552;9.380;2023-02-15T07:43:41;-1.48;88.62
62464;SHT31;48512;48.552;9.380;2023-02-15T07:46:15;-1.47;89.50
62464;SHT31;48512;48.552;9.380;2023-02-15T07:48:42;-1.39;90.20
62464;SHT31;48512;48.552;9.380;2023-02-15T07:51:09;-1.31;90.32
62464;SHT31;48512;48.552;9.380;2023-02-15T07:53:36;-1.29;90.62
62464;SHT31;48512;48.552;9.380;2023-02-15T07:56:11;-1.19;90.68
62464;SHT31;48512;48.552;9.380;2023-02-15T07:58:37;-1.13;90.56
62464;SHT31;48512;48.552;9.380;2023-02-15T08:01:30;-1.04;90.66
62464;SHT31;48512;48.552;9.380;2023-02-15T08:03:56;-0.89;90.44
62464;SHT31;48512;48.552;9.380;2023-02-15T08:06:24;-0.81;90.30
62464;SHT31;48512;48.552;9.380;2023-02-15T08:08:49;-0.69;90.54
62464;SHT31;48512;48.552;9.380;2023-02-15T08:14:02;-0.47;90.24
62464;SHT31;48512;48.552;9.380;2023-02-15T08:16:41;-0.26;89.80
62464;SHT31;48512;48.552;9.380;2023-02-15T08:21:37;0.11;88.81
62464;SHT31;48512;48.552;9.380;2023-02-15T08:24:04;0.31;88.23
62464;SHT31;48512;48.552;9.380;2023-02-15T08:26:30;0.50;87.75
62464;SHT31;48512;48.552;9.380;2023-02-15T08:28:57;0.65;87.75
62464;SHT31;48512;48.552;9.380;2023-02-15T08:31:23;0.98;87.40
62464;SHT31;48512;48.552;9.380;2023-02-15T08:33:50;1.32;88.11
62464;SHT31;48512;48.552;9.380;2023-02-15T08:36:22;1.48;86.77
62464;SHT31;48512;48.552;9.380;2023-02-15T08:38:48;1.63;86.34
62464;SHT31;48512;48.552;9.380;2023-02-15T08:41:19;1.86;85.91
62464;SHT31;48512;48.552;9.380;2023-02-15T08:43:47;2.04;85.85
62464;SHT31;48512;48.552;9.380;2023-02-15T08:46:15;2.22;85.48
62464;SHT31;48512;48.552;9.380;2023-02-15T08:48:41;2.42;85.40
62464;SHT31;48512;48.552;9.380;2023-02-15T08:51:11;2.61;85.64
62464;SHT31;48512;48.552;9.380;2023-02-15T08:53:42;2.80;85.03
62464;SHT31;48512;48.552;9.380;2023-02-15T08:56:08;3.03;84.85
62464;SHT31;48512;48.552;9.380;2023-02-15T08:58:34;3.24;84.53
62464;SHT31;48512;48.552;9.380;2023-02-15T09:00:59;3.41;84.19
62464;SHT31;48512;48.552;9.380;2023-02-15T09:03:27;3.61;83.70
62464;SHT31;48512;48.552;9.380;2023-02-15T09:06:00;3.87;83.51
62464;SHT31;48512;48.552;9.380;2023-02-15T09:08:26;4.09;83.31
62464;SHT31;48512;48.552;9.380;2023-02-15T09:10:52;4.24;83.46
62464;SHT31;48512;48.552;9.380;2023-02-15T09:13:18;4.51;82.40
62464;SHT31;48512;48.552;9.380;2023-02-15T09:15:43;4.75;81.99
62464;SHT31;48512;48.552;9.380;2023-02-15T09:18:09;4.95;80.95
62464;SHT31;48512;48.552;9.380;2023-02-15T09:20:37;5.17;80.55
62464;SHT31;48512;48.552;9.380;2023-02-15T09:23:03;5.44;79.81
62464;SHT31;48512;48.552;9.380;2023-02-15T09:25:28;5.66;78.71
62464;SHT31;48512;48.552;9.380;2023-02-15T09:27:54;5.86;77.84
62464;SHT31;48512;48.552;9.380;2023-02-15T09:30:19;6.10;77.16
62464;SHT31;48512;48.552;9.380;2023-02-15T09:32:45;6.33;76.38
62464;SHT31;48512;48.552;9.380;2023-02-15T09:35:11;6.47;75.86
62464;SHT31;48512;48.552;9.380;2023-02-15T09:37:37;6.70;75.16
62464;SHT31;48512;48.552;9.380;2023-02-15T09:40:03;6.89;74.77
62464;SHT31;48512;48.552;9.380;2023-02-15T09:52:53;7.71;71.61
62464;SHT31;48512;48.552;9.380;2023-02-15T09:55:44;7.99;70.37
62464;SHT31;48512;48.552;9.380;2023-02-15T09:58:27;8.21;70.30
62464;SHT31;48512;48.552;9.380;2023-02-15T10:01:04;8.36;69.77
62464;SHT31;48512;48.552;9.380;2023-02-15T10:06:50;8.63;69.16
62464;SHT31;48512;48.552;9.380;2023-02-15T10:15:07;9.39;67.20
62464;SHT31;48512;48.552;9.380;2023-02-15T10:34:15;11.39;61.83
62464;SHT31;48512;48.552;9.380;2023-02-15T10:52:51;13.16;57.52
62464;SHT31;48512;48.552;9.380;2023-02-15T11:05:57;14.31;54.31
62464;SHT31;48512;48.552;9.380;2023-02-15T11:08:26;14.52;53.55
62464;SHT31;48512;48.552;9.380;2023-02-15T11:10:58;14.91;52.78
62464;SHT31;48512;48.552;9.380;2023-02-15T11:13:31;15.30;52.48
62464;SHT31;48512;48.552;9.380;2023-02-15T11:16:17;15.33;53.24
62464;SHT31;48512;48.552;9.380;2023-02-15T11:18:54;15.36;52.48
62464;SHT31;48512;48.552;9.380;2023-02-15T11:21:28;15.49;52.69
62464;SHT31;48512;48.552;9.380;2023-02-15T11:23:55;15.80;50.77
62464;SHT31;48512;48.552;9.380;2023-02-15T11:26:41;16.06;49.62
62464;SHT31;48512;48.552;9.380;2023-02-15T11:34:43;16.67;49.31
62464;SHT31;48512;48.552;9.380;2023-02-15T11:37:17;16.98;48.36
62464;SHT31;48512;48.552;9.380;2023-02-15T11:39:43;17.05;47.13
62464;SHT31;48512;48.552;9.380;2023-02-15T11:42:14;17.65;46.47
62464;SHT31;48512;48.552;9.380;2023-02-15T11:44:55;17.54;45.44
62464;SHT31;48512;48.552;9.380;2023-02-15T11:47:21;17.90;45.68
62464;SHT31;48512;48.552;9.380;2023-02-15T11:49:47;18.52;47.54
62464;SHT31;48512;48.552;9.380;2023-02-15T11:52:14;18.79;43.90
62464;SHT31;48512;48.552;9.380;2023-02-15T11:54:46;19.30;43.62
62464;SHT31;48512;48.552;9.380;2023-02-15T11:57:33;19.34;43.34
62464;SHT31;48512;48.552;9.380;2023-02-15T12:02:33;19.58;42.84
62464;SHT31;48512;48.552;9.380;2023-02-15T12:05:03;19.34;42.88
62464;SHT31;48512;48.552;9.380;2023-02-15T12:07:35;19.68;41.95
62464;SHT31;48512;48.552;9.380;2023-02-15T12:10:17;19.54;41.71
62464;SHT31;48512;48.552;9.380;2023-02-15T12:12:45;19.99;41.81
62464;SHT31;48512;48.552;9.380;2023-02-15T12:15:12;20.19;40.59
62464;SHT31;48512;48.552;9.380;2023-02-15T12:17:39;20.36;38.61
62464;SHT31;48512;48.552;9.380;2023-02-15T12:22:46;20.14;38.71
62464;SHT31;48512;48.552;9.380;2023-02-15T12:25:29;20.89;36.98
62464;SHT31;48512;48.552;9.380;2023-02-15T12:27:57;20.51;37.57
62464;SHT31;48512;48.552;9.380;2023-02-15T12:38:01;21.36;36.08
62464;SHT31;48512;48.552;9.380;2023-02-15T12:40:29;21.50;36.28
62464;SHT31;48512;48.552;9.380;2023-02-15T12:42:55;21.77;35.83
62464;SHT31;48512;48.552;9.380;2023-02-15T12:45:27;21.74;36.05
62464;SHT31;48512;48.552;9.380;2023-02-15T12:50:37;22.12;35.05
62464;SHT31;48512;48.552;9.380;2023-02-15T12:53:33;22.59;34.62
62464;SHT31;48512;48.552;9.380;2023-02-15T12:56:01;21.84;35.18
62464;SHT31;48512;48.552;9.380;2023-02-15T12:58:30;20.92;36.27
62464;SHT31;48512;48.552;9.380;2023-02-15T13:01:16;20.81;36.06
62464;SHT31;48512;48.552;9.380;2023-02-15T13:04:01;21.31;36.24
62464;SHT31;48512;48.552;9.380;2023-02-15T13:06:29;20.88;36.56
62464;SHT31;48512;48.552;9.380;2023-02-15T13:08:58;21.37;35.65
62464;SHT31;48512;48.552;9.380;2023-02-15T13:11:31;21.81;34.77
62464;SHT31;48512;48.552;9.380;2023-02-15T13:14:16;22.45;34.59
62464;SHT31;48512;48.552;9.380;2023-02-15T13:16:43;22.52;33.97
62464;SHT31;48512;48.552;9.380;2023-02-15T13:19:26;22.94;33.46
62464;SHT31;48512;48.552;9.380;2023-02-15T13:21:53;23.25;32.56
62464;SHT31;48512;48.552;9.380;2023-02-15T13:24:26;22.98;32.16
62464;SHT31;48512;48.552;9.380;2023-02-15T13:26:54;23.05;32.62
62464;SHT31;48512;48.552;9.380;2023-02-15T13:29:27;23.45;31.95
62464;SHT31;48512;48.552;9.380;2023-02-15T13:31:54;23.18;33.32
62464;SHT31;48512;48.552;9.380;2023-02-15T13:34:25;22.63;32.56
62464;SHT31;48512;48.552;9.380;2023-02-15T13:47:42;23.21;31.77
62464;SHT31;48512;48.552;9.380;2023-02-15T13:56:04;23.41;31.10
62464;SHT31;48512;48.552;9.380;2023-02-15T14:26:06;23.87;30.75
62464;SHT31;48512;48.552;9.380;2023-02-15T14:28:45;23.49;30.74
62464;SHT31;48512;48.552;9.380;2023-02-15T14:31:14;23.43;30.83
62464;SHT31;48512;48.552;9.380;2023-02-15T14:33:49;23.43;30.76
62464;SHT31;48512;48.552;9.380;2023-02-15T14:36:19;23.33;30.65
62464;SHT31;48512;48.552;9.380;2023-02-15T14:39:11;23.33;30.76
62464;SHT31;48512;48.552;9.380;2023-02-15T14:42:17;23.00;31.12
62464;SHT31;48512;48.552;9.380;2023-02-15T14:45:01;23.21;30.86
62464;SHT31;48512;48.552;9.380;2023-02-15T14:47:38;23.23;30.56
62464;SHT31;48512;48.552;9.380;2023-02-15T15:03:54;21.73;32.13
62464;SHT31;48512;48.552;9.380;2023-02-15T15:06:27;21.40;33.21
62464;SHT31;48512;48.552;9.380;2023-02-15T15:09:27;21.00;34.02
62464;SHT31;48512;48.552;9.380;2023-02-15T15:11:54;20.68;34.18
62464;SHT31;48512;48.552;9.380;2023-02-15T15:17:00;19.78;34.55
62464;SHT31;48512;48.552;9.380;2023-02-15T15:22:23;20.05;34.81
62464;SHT31;48512;48.552;9.380;2023-02-15T15:25:03;19.92;34.86
62464;SHT31;48512;48.552;9.380;2023-02-15T15:27:48;19.71;35.03
62464;SHT31;48512;48.552;9.380;2023-02-15T15:35:29;19.82;39.38
62464;SHT31;48512;48.552;9.380;2023-02-15T15:47:30;17.25;39.76
62464;SHT31;48512;48.552;9.380;2023-02-15T15:49:32;16.80;40.24
62464;SHT31;48512;48.552;9.380;2023-02-15T15:52:03;16.53;40.94
62464;SHT31;48512;48.552;9.380;2023-02-15T15:54:33;16.22;41.44
62464;SHT31;48512;48.552;9.380;2023-02-15T15:57:03;15.82;42.55
62464;SHT31;48512;48.552;9.380;2023-02-15T15:59:34;15.35;43.84
62464;SHT31;48512;48.552;9.380;2023-02-15T16:02:07;15.05;44.77
62464;SHT31;48512;48.552;9.380;2023-02-15T16:04:35;14.71;45.20
62464;SHT31;48512;48.552;9.380;2023-02-15T16:12:21;13.83;47.35
62464;SHT31;48512;48.552;9.380;2023-02-15T16:14:47;13.34;48.58
62464;SHT31;48512;48.552;9.380;2023-02-15T16:17:34;13.07;49.29
62464;SHT31;48512;48.552;9.380;2023-02-15T16:20:15;12.70;50.16
62464;SHT31;48512;48.552;9.380;2023-02-15T16:22:44;12.34;51.05
62464;SHT31;48512;48.552;9.380;2023-02-15T16:28:14;11.51;52.55
62464;SHT31;48512;48.552;9.380;2023-02-15T16:30:44;11.58;52.44
62464;SHT31;48512;48.552;9.380;2023-02-15T16:33:15;11.35;52.89
62464;SHT31;48512;48.552;9.380;2023-02-15T16:36:01;11.18;52.92
62464;SHT31;48512;48.552;9.380;2023-02-15T16:41:11;10.64;54.21
62464;SHT31;48512;48.552;9.380;2023-02-15T16:43:39;10.53;54.46
62464;SHT31;48512;48.552;9.380;2023-02-15T16:46:18;10.19;55.02
62464;SHT31;48512;48.552;9.380;2023-02-15T16:48:46;9.93;55.67
62464;SHT31;48512;48.552;9.380;2023-02-15T16:51:22;9.73;55.90
62464;SHT31;48512;48.552;9.380;2023-02-15T16:53:49;9.40;56.88
62464;SHT31;48512;48.552;9.380;2023-02-15T16:56:15;9.22;57.48
62464;SHT31;48512;48.552;9.380;2023-02-15T16:58:49;9.28;57.48
62464;SHT31;48512;48.552;9.380;2023-02-15T17:01:16;9.16;57.36
62464;SHT31;48512;48.552;9.380;2023-02-15T17:03:48;8.85;58.06
62464;SHT31;48512;48.552;9.380;2023-02-15T17:06:25;8.81;57.91
62464;SHT31;48512;48.552;9.380;2023-02-15T17:08:52;8.61;58.09
62464;SHT31;48512;48.552;9.380;2023-02-15T17:11:41;8.42;58.46
62464;SHT31;48512;48.552;9.380;2023-02-15T17:16:36;8.15;59.09
62464;SHT31;48512;48.552;9.380;2023-02-15T17:19:17;8.01;59.24
62464;SHT31;48512;48.552;9.380;2023-02-15T17:21:53;8.13;58.96
62464;SHT31;48512;48.552;9.380;2023-02-15T17:24:46;7.92;59.35
62464;SHT31;48512;48.552;9.380;2023-02-15T17:27:22;7.56;60.22
62464;SHT31;48512;48.552;9.380;2023-02-15T17:29:51;7.51;60.15
62464;SHT31;48512;48.552;9.380;2023-02-15T17:32:21;7.39;60.48
62464;SHT31;48512;48.552;9.380;2023-02-15T17:37:25;7.16;61.26
62464;SHT31;48512;48.552;9.380;2023-02-15T17:39:51;7.02;61.36
62464;SHT31;48512;48.552;9.380;2023-02-15T17:42:16;6.77;62.24
62464;SHT31;48512;48.552;9.380;2023-02-15T17:44:42;6.61;62.54
62464;SHT31;48512;48.552;9.380;2023-02-15T17:47:12;6.51;62.89
62464;SHT31;48512;48.552;9.380;2023-02-15T17:49:39;6.44;63.08
62464;SHT31;48512;48.552;9.380;2023-02-15T17:52:05;6.34;63.20
62464;SHT31;48512;48.552;9.380;2023-02-15T17:54:30;6.16;63.50
62464;SHT31;48512;48.552;9.380;2023-02-15T17:57:14;6.29;63.01
62464;SHT31;48512;48.552;9.380;2023-02-15T17:59:41;6.19;62.95
62464;SHT31;48512;48.552;9.380;2023-02-15T18:02:34;6.09;62.92
62464;SHT31;48512;48.552;9.380;2023-02-15T18:05:19;5.98;62.94
62464;SHT31;48512;48.552;9.380;2023-02-15T18:08:07;6.01;62.73
62464;SHT31;48512;48.552;9.380;2023-02-15T18:10:52;5.89;63.01
62464;SHT31;48512;48.552;9.380;2023-02-15T18:13:36;5.79;62.98
62464;SHT31;48512;48.552;9.380;2023-02-15T18:16:01;5.72;63.84
62464;SHT31;48512;48.552;9.380;2023-02-15T18:18:27;5.52;64.54
62464;SHT31;48512;48.552;9.380;2023-02-15T18:20:52;5.41;64.77
62464;SHT31;48512;48.552;9.380;2023-02-15T18:23:17;5.48;65.01
62464;SHT31;48512;48.552;9.380;2023-02-15T18:25:43;5.40;65.42
62464;SHT31;48512;48.552;9.380;2023-02-15T18:28:08;5.41;65.26
62464;SHT31;48512;48.552;9.380;2023-02-15T18:30:39;5.43;64.93
62464;SHT31;48512;48.552;9.380;2023-02-15T18:33:41;5.31;65.17
62464;SHT31;48512;48.552;9.380;2023-02-15T18:36:13;5.26;65.19
62464;SHT31;48512;48.552;9.380;2023-02-15T18:38:41;5.15;65.89
62464;SHT31;48512;48.552;9.380;2023-02-15T18:41:06;5.06;65.89
62464;SHT31;48512;48.552;9.380;2023-02-15T18:43:31;5.10;66.03
62464;SHT31;48512;48.552;9.380;2023-02-15T18:45:57;5.10;66.48
62464;SHT31;48512;48.552;9.380;2023-02-15T18:48:22;5.01;67.35
62464;SHT31;48512;48.552;9.380;2023-02-15T18:50:49;5.05;67.44
62464;SHT31;48512;48.552;9.380;2023-02-15T18:53:19;5.16;67.38
62464;SHT31;48512;48.552;9.380;2023-02-15T18:55:45;5.10;68.47
62464;SHT31;48512;48.552;9.380;2023-02-15T18:58:20;5.06;69.15
62464;SHT31;48512;48.552;9.380;2023-02-15T19:00:46;4.89;69.91
62464;SHT31;48512;48.552;9.380;2023-02-15T19:03:13;4.88;70.23
62464;SHT31;48512;48.552;9.380;2023-02-15T19:05:44;5.00;70.89
62464;SHT31;48512;48.552;9.380;2023-02-15T19:08:21;5.13;70.33
62464;SHT31;48512;48.552;9.380;2023-02-15T19:10:49;5.06;70.82
62464;SHT31;48512;48.552;9.380;2023-02-15T19:13:15;4.99;71.27
62464;SHT31;48512;48.552;9.380;2023-02-15T19:15:42;5.03;71.50
62464;SHT31;48512;48.552;9.380;2023-02-15T19:18:07;4.89;71.68
62464;SHT31;48512;48.552;9.380;2023-02-15T19:20:39;4.90;72.24
62464;SHT31;48512;48.552;9.380;2023-02-15T19:23:08;4.86;72.45
62464;SHT31;48512;48.552;9.380;2023-02-15T19:25:38;4.82;72.63
62464;SHT31;48512;48.552;9.380;2023-02-15T19:28:31;4.68;73.50
62464;SHT31;48512;48.552;9.380;2023-02-15T19:30:57;4.73;73.52